To NAV CANADA Home Page Login to a new session Search on AWWS site Feedback and Comments Disclaimer Vers la page française équivalente Tips FAQ What's new on the site To the Forecasts and Observations / NOTAM section To "File a Flight Plan" website Publications and other links Update of the User's profile FIC Telephone Numbers My Weather Data Folder Route Weather Data Regional Weather Data Local Weather Data To the Forecasts and Observations / NOTAM section
Request Generated 04/18/2015 at 19:18:08 UTC . Weather information available at that time is displayed.

METAR/TAF

TALOYOAK/NU    

METAR CYYH 181900Z 31015KT 15SM FEW015 BKN040 M12/M15 A3006 RMK
SC1SC6 SC TR SLP183=
METAR CYYH 181800Z 31011KT 15SM VCFG FEW015 BKN040 BKN089 BKN210
M13/M16 A3005 RMK CU1SC6AC1CI1 CU TR CI TR DIST FG SLP179=
METAR CYYH 181700Z 31015KT 15SM VCFG FEW008 FEW020 BKN040 BKN080
M12/M16 A3003 RMK CU1SC2SC3AC2 CU TR VIS W 8 SLP172=

TAF CYYH 181738Z 1818/1906 30012KT P6SM FEW008 SCT020 BKN040 TEMPO
1818/1906 4SM -SN BR SCT008 BKN020 OVC040
RMK NXT FCST BY 190000Z=
Your time UTC time
Weather data provided by Environment Canada and NAV CANADA